createdAt,value
2018-08-12T00:00:22.327Z,75.77
2018-08-12T00:01:22.325Z,75.77
2018-08-12T00:02:22.319Z,75.77
2018-08-12T00:03:22.310Z,75.68
2018-08-12T00:04:22.304Z,75.96
2018-08-12T00:05:22.290Z,75.68
2018-08-12T00:06:22.281Z,75.96
2018-08-12T00:07:22.269Z,75.77
2018-08-12T00:08:22.265Z,76.06
2018-08-12T00:09:22.251Z,75.68
2018-08-12T00:10:22.248Z,75.68
2018-08-12T00:11:22.236Z,75.68
2018-08-12T00:12:22.229Z,75.48
2018-08-12T00:13:22.211Z,75.48
2018-08-12T00:14:22.211Z,75.77
2018-08-12T00:15:22.218Z,74.91
2018-08-12T00:16:22.195Z,75.20
2018-08-12T00:17:22.191Z,75.58
2018-08-12T00:18:22.171Z,75.01
2018-08-12T00:19:22.166Z,74.91
2018-08-12T00:20:22.154Z,75.58
2018-08-12T00:21:22.149Z,75.58
2018-08-12T00:22:22.135Z,75.20
2018-08-12T00:23:22.125Z,75.29
2018-08-12T00:24:22.115Z,74.62
2018-08-12T00:25:22.113Z,74.52
2018-08-12T00:26:22.102Z,74.33
2018-08-12T00:27:22.092Z,75.20
2018-08-12T00:28:22.084Z,74.91
2018-08-12T00:29:22.074Z,75.20
2018-08-12T00:30:22.063Z,74.72
2018-08-12T00:31:22.066Z,74.72
2018-08-12T00:32:22.047Z,74.72
2018-08-12T00:33:22.039Z,74.91
2018-08-12T00:34:22.027Z,74.72
2018-08-12T00:35:22.020Z,74.62
2018-08-12T00:36:22.009Z,74.72
2018-08-12T00:37:21.999Z,74.52
2018-08-12T00:38:21.992Z,74.72
2018-08-12T00:39:21.985Z,74.43
2018-08-12T00:40:21.974Z,74.52
2018-08-12T00:41:21.968Z,74.72
2018-08-12T00:42:21.954Z,75.01
2018-08-12T00:43:21.947Z,75.39
2018-08-12T00:44:21.938Z,75.39
2018-08-12T00:45:21.928Z,75.29
2018-08-12T00:46:21.917Z,75.29
2018-08-12T00:47:21.909Z,75.20
2018-08-12T00:48:21.897Z,75.16
2018-08-12T00:49:21.887Z,75.29
2018-08-12T00:50:21.885Z,75.20
2018-08-12T00:51:21.875Z,75.54
2018-08-12T00:52:21.863Z,75.45
2018-08-12T00:53:21.862Z,75.45
2018-08-12T00:54:21.854Z,75.29
2018-08-12T00:55:21.841Z,75.16
2018-08-12T00:56:21.822Z,75.01
2018-08-12T00:57:21.827Z,75.16
2018-08-12T00:58:21.809Z,75.16
2018-08-12T00:59:21.801Z,74.49
2018-08-12T01:00:21.791Z,74.68
2018-08-12T01:01:21.783Z,75.16
2018-08-12T01:02:21.772Z,75.07
2018-08-12T01:03:21.762Z,75.45
2018-08-12T01:04:21.764Z,75.54
2018-08-12T01:05:21.747Z,76.02
2018-08-12T01:06:21.736Z,76.50
2018-08-12T01:07:21.728Z,76.60
2018-08-12T01:08:21.712Z,76.31
2018-08-12T01:09:21.710Z,76.31
2018-08-12T01:10:21.697Z,76.31
2018-08-12T01:11:21.687Z,76.69
2018-08-12T01:12:21.679Z,76.12
2018-08-12T01:13:21.667Z,76.50
2018-08-12T01:14:21.667Z,76.21
2018-08-12T01:15:21.653Z,76.50
2018-08-12T01:16:21.646Z,76.60
2018-08-12T01:17:21.633Z,75.93
2018-08-12T01:18:21.626Z,76.31
2018-08-12T01:19:21.616Z,76.21
2018-08-12T01:20:21.608Z,76.12
2018-08-12T01:21:21.592Z,76.98
2018-08-12T01:22:21.594Z,76.60
2018-08-12T01:23:21.582Z,76.60
2018-08-12T01:24:21.568Z,76.50
2018-08-12T01:25:21.560Z,76.89
2018-08-12T01:26:21.549Z,76.40
2018-08-12T01:27:21.543Z,76.50
2018-08-12T01:28:21.538Z,76.50
2018-08-12T01:29:21.523Z,76.12
2018-08-12T01:30:21.510Z,75.54
2018-08-12T01:31:21.512Z,75.45
2018-08-12T01:32:21.496Z,76.31
2018-08-12T01:33:21.488Z,76.79
2018-08-12T01:34:21.483Z,76.79
2018-08-12T01:35:21.469Z,76.40
2018-08-12T01:36:21.462Z,76.40
2018-08-12T01:37:21.457Z,76.40
2018-08-12T01:38:21.438Z,76.12
2018-08-12T01:39:21.432Z,76.50
2018-08-12T01:40:21.425Z,76.60
2018-08-12T01:41:21.412Z,75.93
2018-08-12T01:42:21.407Z,76.31
2018-08-12T01:43:21.401Z,76.50
2018-08-12T01:44:21.388Z,76.31
2018-08-12T01:45:21.378Z,76.02
2018-08-12T01:46:21.374Z,76.40
2018-08-12T01:47:21.359Z,76.40
2018-08-12T01:48:21.353Z,76.69
2018-08-12T01:49:21.339Z,76.50
2018-08-12T01:50:21.329Z,76.12
2018-08-12T01:51:21.323Z,76.40
2018-08-12T01:52:21.309Z,76.75
2018-08-12T01:53:21.301Z,77.13
2018-08-12T01:54:21.291Z,77.90
2018-08-12T01:55:21.288Z,77.90
2018-08-12T01:56:21.275Z,78.19
2018-08-12T01:57:21.264Z,78.66
2018-08-12T01:58:21.255Z,78.28
2018-08-12T01:59:21.248Z,78.28
2018-08-12T02:00:21.240Z,78.76
2018-08-12T02:01:21.226Z,78.38
2018-08-12T02:02:21.215Z,78.95
2018-08-12T02:03:21.205Z,78.95
2018-08-12T02:04:21.204Z,78.95
2018-08-12T02:05:21.192Z,78.76
2018-08-12T02:06:21.184Z,78.38
2018-08-12T02:07:21.170Z,78.28
2018-08-12T02:08:21.156Z,78.28
2018-08-12T02:09:21.148Z,78.38
2018-08-12T02:10:21.146Z,78.66
2018-08-12T02:11:21.136Z,78.28
2018-08-12T02:12:21.123Z,78.19
2018-08-12T02:13:21.121Z,78.38
2018-08-12T02:14:21.107Z,78.19
2018-08-12T02:15:21.100Z,78.28
2018-08-12T02:16:21.083Z,78.19
2018-08-12T02:17:21.078Z,78.09
2018-08-12T02:18:21.071Z,77.99
2018-08-12T02:19:21.056Z,77.90
2018-08-12T02:20:21.050Z,77.51
2018-08-12T02:21:21.038Z,77.61
2018-08-12T02:22:21.028Z,77.61
2018-08-12T02:23:21.029Z,77.61
2018-08-12T02:24:21.012Z,77.90
2018-08-12T02:25:21.003Z,77.61
2018-08-12T02:26:20.992Z,77.70
2018-08-12T02:27:20.986Z,78.09
2018-08-12T02:28:20.984Z,78.47
2018-08-12T02:29:20.965Z,78.57
2018-08-12T02:30:20.954Z,78.19
2018-08-12T02:31:20.943Z,78.66
2018-08-12T02:32:20.931Z,78.76
2018-08-12T02:33:20.924Z,78.66
2018-08-12T02:34:20.918Z,78.95
2018-08-12T02:35:20.913Z,78.86
2018-08-12T02:36:20.898Z,79.05
2018-08-12T02:37:20.888Z,78.95
2018-08-12T02:38:20.880Z,78.95
2018-08-12T02:39:20.871Z,79.52
2018-08-12T02:40:20.855Z,79.52
2018-08-12T02:41:20.859Z,79.43
2018-08-12T02:42:20.841Z,79.24
2018-08-12T02:43:20.835Z,79.33
2018-08-12T02:44:20.826Z,79.24
2018-08-12T02:45:20.813Z,79.24
2018-08-12T02:46:20.808Z,79.62
2018-08-12T02:47:20.789Z,78.95
2018-08-12T02:48:20.786Z,79.43
2018-08-12T02:49:20.776Z,78.95
2018-08-12T02:50:20.764Z,79.72
2018-08-12T02:51:20.772Z,79.33
2018-08-12T02:52:20.743Z,79.05
2018-08-12T02:53:20.729Z,78.95
2018-08-12T02:54:20.727Z,79.43
2018-08-12T02:55:20.724Z,79.14
2018-08-12T02:56:20.711Z,79.43
2018-08-12T02:57:20.703Z,79.52
2018-08-12T02:58:20.687Z,79.24
2018-08-12T02:59:20.683Z,79.05
2018-08-12T03:00:20.669Z,79.62
2018-08-12T03:01:20.657Z,79.29
2018-08-12T03:02:20.663Z,79.39
2018-08-12T03:03:20.638Z,79.14
2018-08-12T03:04:20.637Z,79.39
2018-08-12T03:05:20.626Z,79.29
2018-08-12T03:06:20.612Z,79.49
2018-08-12T03:07:20.607Z,79.91
2018-08-12T03:08:20.589Z,79.91
2018-08-12T03:09:20.579Z,79.72
2018-08-12T03:10:20.577Z,80.06
2018-08-12T03:11:20.565Z,80.10
2018-08-12T03:12:20.553Z,79.72
2018-08-12T03:13:20.546Z,79.91
2018-08-12T03:14:20.538Z,79.62
2018-08-12T03:15:20.524Z,79.52
2018-08-12T03:16:20.519Z,79.72
2018-08-12T03:17:20.511Z,79.33
2018-08-12T03:18:20.498Z,79.52
2018-08-12T03:19:20.490Z,79.14
2018-08-12T03:20:20.476Z,79.43
2018-08-12T03:21:20.467Z,79.14
2018-08-12T03:22:20.487Z,79.52
2018-08-12T03:23:20.455Z,79.24
2018-08-12T03:24:20.440Z,79.43
2018-08-12T03:25:20.428Z,79.52
2018-08-12T03:26:20.424Z,79.24
2018-08-12T03:27:20.415Z,79.24
2018-08-12T03:28:20.400Z,79.49
2018-08-12T03:29:20.391Z,78.95
2018-08-12T03:30:20.442Z,79.33
2018-08-12T03:31:20.368Z,78.95
2018-08-12T03:32:20.365Z,79.24
2018-08-12T03:33:20.353Z,79.33
2018-08-12T03:34:20.346Z,78.95
2018-08-12T03:35:20.332Z,78.86
2018-08-12T03:36:20.326Z,79.24
2018-08-12T03:37:20.316Z,79.14
2018-08-12T03:38:20.306Z,78.86
2018-08-12T03:39:20.296Z,79.33
2018-08-12T03:40:20.291Z,79.52
2018-08-12T03:41:20.275Z,79.72
2018-08-12T03:42:20.266Z,79.52
2018-08-12T03:43:20.252Z,79.81
2018-08-12T03:44:20.246Z,79.81
2018-08-12T03:45:20.232Z,79.52
2018-08-12T03:46:20.230Z,79.52
2018-08-12T03:47:20.218Z,79.81
2018-08-12T03:48:20.208Z,79.33
2018-08-12T03:49:20.204Z,79.91
2018-08-12T03:50:20.191Z,79.52
2018-08-12T03:51:20.181Z,79.91
2018-08-12T03:52:20.169Z,79.81
2018-08-12T03:53:20.164Z,79.81
2018-08-12T03:54:20.151Z,80.10
2018-08-12T03:55:20.145Z,80.10
2018-08-12T03:56:20.134Z,79.91
2018-08-12T03:57:20.123Z,79.43
2018-08-12T03:58:20.138Z,79.33
2018-08-12T03:59:20.104Z,79.14
2018-08-12T04:00:20.092Z,79.33
2018-08-12T04:01:20.084Z,79.62
2018-08-12T04:02:20.086Z,79.33
2018-08-12T04:03:20.062Z,79.33
2018-08-12T04:04:20.059Z,79.62
2018-08-12T04:05:20.046Z,79.81
2018-08-12T04:06:20.037Z,79.91
2018-08-12T04:07:20.027Z,79.62
2018-08-12T04:08:20.024Z,79.24
2018-08-12T04:09:20.007Z,79.72
2018-08-12T04:10:19.995Z,79.81
2018-08-12T04:11:19.991Z,79.52
2018-08-12T04:12:19.981Z,79.81
2018-08-12T04:13:19.967Z,79.81
2018-08-12T04:14:19.958Z,79.72
2018-08-12T04:15:19.954Z,79.62
2018-08-12T04:16:19.940Z,79.72
2018-08-12T04:17:19.935Z,79.72
2018-08-12T04:18:19.920Z,79.52
2018-08-12T04:19:19.912Z,80.29
2018-08-12T04:20:19.898Z,80.29
2018-08-12T04:21:19.894Z,80.29
2018-08-12T04:22:19.891Z,80.38
2018-08-12T04:23:19.871Z,80.19
2018-08-12T04:24:19.869Z,79.43
2018-08-12T04:25:19.851Z,79.91
2018-08-12T04:26:19.843Z,79.14
2018-08-12T04:27:19.833Z,79.05
2018-08-12T04:28:19.823Z,79.52
2018-08-12T04:29:19.815Z,79.24
2018-08-12T04:30:19.808Z,79.24
2018-08-12T04:31:19.794Z,79.72
2018-08-12T04:32:19.786Z,79.05
2018-08-12T04:33:19.771Z,78.95
2018-08-12T04:34:19.768Z,79.43
2018-08-12T04:35:19.752Z,78.95
2018-08-12T04:36:19.746Z,79.24
2018-08-12T04:37:19.736Z,79.52
2018-08-12T04:38:19.730Z,79.62
2018-08-12T04:39:19.712Z,79.43
2018-08-12T04:40:19.703Z,79.52
2018-08-12T04:41:19.712Z,79.81
2018-08-12T04:42:19.694Z,80.10
2018-08-12T04:43:19.679Z,79.81
2018-08-12T04:44:19.668Z,79.72
2018-08-12T04:45:19.656Z,79.81
2018-08-12T04:46:19.649Z,79.81
2018-08-12T04:47:19.637Z,79.72
2018-08-12T04:48:19.635Z,79.81
2018-08-12T04:49:19.622Z,79.91
2018-08-12T04:50:19.610Z,79.52
2018-08-12T04:51:19.599Z,79.87
2018-08-12T04:52:19.591Z,79.72
2018-08-12T04:53:19.582Z,79.72
2018-08-12T04:54:19.569Z,79.68
2018-08-12T04:55:19.563Z,79.43
2018-08-12T04:56:19.552Z,79.81
2018-08-12T04:57:19.543Z,79.77
2018-08-12T04:58:19.528Z,79.52
2018-08-12T04:59:19.520Z,79.87
2018-08-12T05:00:19.510Z,79.96
2018-08-12T05:01:19.506Z,79.68
2018-08-12T05:02:19.497Z,80.35
2018-08-12T05:03:19.487Z,80.16
2018-08-12T05:04:19.475Z,80.06
2018-08-12T05:05:19.468Z,80.87
2018-08-12T05:06:19.480Z,80.73
2018-08-12T05:07:19.444Z,80.25
2018-08-12T05:08:19.437Z,80.00
2018-08-12T05:09:19.424Z,80.38
2018-08-12T05:10:19.418Z,79.62
2018-08-12T05:11:19.403Z,79.72
2018-08-12T05:12:19.394Z,80.00
2018-08-12T05:13:19.398Z,80.29
2018-08-12T05:14:19.377Z,80.77
2018-08-12T05:15:19.364Z,80.67
2018-08-12T05:16:19.357Z,81.15
2018-08-12T05:17:19.357Z,81.15
2018-08-12T05:18:19.338Z,81.15
2018-08-12T05:19:19.327Z,81.05
2018-08-12T05:20:19.316Z,80.58
2018-08-12T05:21:19.310Z,80.87
2018-08-12T05:22:19.303Z,80.67
2018-08-12T05:23:19.290Z,80.67
2018-08-12T05:24:19.289Z,80.48
2018-08-12T05:25:19.275Z,80.48
2018-08-12T05:26:19.260Z,80.67
2018-08-12T05:27:19.252Z,81.15
2018-08-12T05:28:19.244Z,80.58
2018-08-12T05:29:19.231Z,80.77
2018-08-12T05:30:19.220Z,80.48
2018-08-12T05:31:19.210Z,80.77
2018-08-12T05:32:19.203Z,81.25
2018-08-12T05:33:19.190Z,80.10
2018-08-12T05:34:19.189Z,80.29
2018-08-12T05:35:19.176Z,80.48
2018-08-12T05:36:19.165Z,80.19
2018-08-12T05:37:19.160Z,80.96
2018-08-12T05:38:19.145Z,79.91
2018-08-12T05:39:19.138Z,80.48
2018-08-12T05:40:19.130Z,80.96
2018-08-12T05:41:19.115Z,81.15
2018-08-12T05:42:19.104Z,81.15
2018-08-12T05:43:19.094Z,80.77
2018-08-12T05:44:19.090Z,80.87
2018-08-12T05:45:19.110Z,81.44
2018-08-12T05:46:19.066Z,81.05
2018-08-12T05:47:19.055Z,81.82
2018-08-12T05:48:19.046Z,80.29
2018-08-12T05:49:19.043Z,80.87
2018-08-12T05:50:19.029Z,80.58
2018-08-12T05:51:19.063Z,80.67
2018-08-12T05:52:19.009Z,80.96
2018-08-12T05:53:19.005Z,80.77
2018-08-12T05:54:18.990Z,80.96
2018-08-12T05:55:18.982Z,80.67
2018-08-12T05:56:18.972Z,81.15
2018-08-12T05:57:19.008Z,80.96
2018-08-12T05:58:18.953Z,81.05
2018-08-12T05:59:18.945Z,80.87
2018-08-12T06:00:18.939Z,80.48
2018-08-12T06:01:18.924Z,80.67
2018-08-12T06:02:18.918Z,80.67
2018-08-12T06:03:18.906Z,80.96
2018-08-12T06:04:18.908Z,80.38
2018-08-12T06:05:18.887Z,80.67
2018-08-12T06:06:18.881Z,80.87
2018-08-12T06:07:18.865Z,80.38
2018-08-12T06:08:18.854Z,80.58
2018-08-12T06:09:18.847Z,81.05
2018-08-12T06:10:18.837Z,80.67
2018-08-12T06:11:18.829Z,80.87
2018-08-12T06:12:18.815Z,80.87
2018-08-12T06:13:18.809Z,80.96
2018-08-12T06:14:18.800Z,80.96
2018-08-12T06:15:18.796Z,80.77
2018-08-12T06:16:18.780Z,81.25
2018-08-12T06:17:18.774Z,80.58
2018-08-12T06:18:18.764Z,80.38
2018-08-12T06:19:18.747Z,80.87
2018-08-12T06:20:18.737Z,81.05
2018-08-12T06:21:18.733Z,80.77
2018-08-12T06:22:18.724Z,80.58
2018-08-12T06:23:18.712Z,80.87
2018-08-12T06:24:18.703Z,80.10
2018-08-12T06:25:18.696Z,79.66
2018-08-12T06:26:18.684Z,80.24
2018-08-12T06:27:18.672Z,79.85
2018-08-12T06:28:18.664Z,79.28
2018-08-12T06:29:18.654Z,79.51
2018-08-12T06:30:18.645Z,79.03
2018-08-12T06:31:18.634Z,78.64
2018-08-12T06:32:18.627Z,78.45
2018-08-12T06:33:18.617Z,79.74
2018-08-12T06:34:18.637Z,80.79
2018-08-12T06:35:18.605Z,80.89
2018-08-12T06:36:18.590Z,79.93
2018-08-12T06:37:18.582Z,79.83
2018-08-12T06:38:18.571Z,79.59
2018-08-12T06:39:18.562Z,78.63
2018-08-12T06:40:18.548Z,79.68
2018-08-12T06:41:18.548Z,79.39
2018-08-12T06:42:18.533Z,78.63
2018-08-12T06:43:18.517Z,78.44
2018-08-12T06:44:18.514Z,78.19
2018-08-12T06:45:18.508Z,78.09
2018-08-12T06:46:18.531Z,77.42
2018-08-12T06:47:18.489Z,77.42
2018-08-12T06:48:18.480Z,76.84
2018-08-12T06:49:18.471Z,77.13
2018-08-12T06:50:18.460Z,76.59
2018-08-12T06:51:18.452Z,76.12
2018-08-12T06:52:18.444Z,75.82
2018-08-12T06:53:18.430Z,75.35
2018-08-12T06:54:18.425Z,75.25
2018-08-12T06:55:18.415Z,75.96
2018-08-12T06:56:18.409Z,75.87
2018-08-12T06:57:18.400Z,74.52
2018-08-12T06:58:18.392Z,73.18
2018-08-12T06:59:18.379Z,73.18
2018-08-12T07:00:18.407Z,73.08
2018-08-12T07:01:18.361Z,72.99
2018-08-12T07:02:18.355Z,72.89
2018-08-12T07:03:18.347Z,73.18
2018-08-12T07:04:18.376Z,72.79
2018-08-12T07:05:18.332Z,72.08
2018-08-12T07:06:18.322Z,71.73
2018-08-12T07:07:18.312Z,71.55
2018-08-12T07:08:18.316Z,71.83
2018-08-12T07:09:18.294Z,72.89
2018-08-12T07:10:18.292Z,71.64
2018-08-12T07:11:18.275Z,72.16
2018-08-12T07:12:18.270Z,72.16
2018-08-12T07:13:18.264Z,72.92
2018-08-12T07:14:18.281Z,73.21
2018-08-12T07:15:18.250Z,72.92
2018-08-12T07:16:18.239Z,73.31
2018-08-12T07:17:18.230Z,73.11
2018-08-12T07:18:18.222Z,73.11
2018-08-12T07:19:18.209Z,72.92
2018-08-12T07:20:18.198Z,73.21
2018-08-12T07:21:18.214Z,73.88
2018-08-12T07:22:18.186Z,73.88
2018-08-12T07:23:18.181Z,73.21
2018-08-12T07:24:18.175Z,72.83
2018-08-12T07:25:18.172Z,72.44
2018-08-12T07:26:18.158Z,72.48
2018-08-12T07:27:18.146Z,71.81
2018-08-12T07:28:18.134Z,72.19
2018-08-12T07:29:18.130Z,71.14
2018-08-12T07:30:18.126Z,70.37
2018-08-12T07:31:18.112Z,71.08
2018-08-12T07:32:18.103Z,70.68
2018-08-12T07:33:18.105Z,69.82
2018-08-12T07:34:18.092Z,69.73
2018-08-12T07:35:18.085Z,68.90
2018-08-12T07:36:18.077Z,68.13
2018-08-12T07:37:18.069Z,68.51
2018-08-12T07:38:18.059Z,68.60
2018-08-12T07:39:18.056Z,68.13
2018-08-12T07:40:18.050Z,67.97
2018-08-12T07:41:18.032Z,67.68
2018-08-12T07:42:18.029Z,67.87
2018-08-12T07:43:18.022Z,66.24
2018-08-12T07:44:18.010Z,65.08
2018-08-12T07:45:18.004Z,65.59
2018-08-12T07:46:17.998Z,65.50
2018-08-12T07:47:17.990Z,66.36
2018-08-12T07:48:17.979Z,65.20
2018-08-12T07:49:17.971Z,64.92
2018-08-12T07:50:17.968Z,63.67
2018-08-12T07:51:17.965Z,63.09
2018-08-12T07:52:17.952Z,62.60
2018-08-12T07:53:17.946Z,62.73
2018-08-12T07:54:17.936Z,63.95
2018-08-12T07:55:17.933Z,63.89
2018-08-12T07:56:17.932Z,66.30
2018-08-12T07:57:17.918Z,66.49
2018-08-12T07:58:17.914Z,64.47
2018-08-12T07:59:17.901Z,64.05
2018-08-12T08:00:17.895Z,64.82
2018-08-12T08:01:17.889Z,64.08
2018-08-12T08:02:17.881Z,65.63
2018-08-12T08:03:17.875Z,64.66
2018-08-12T08:04:17.869Z,64.47
2018-08-12T08:05:17.861Z,62.63
2018-08-12T08:06:17.858Z,62.73
2018-08-12T08:07:17.849Z,62.73
2018-08-12T08:08:17.841Z,63.41
2018-08-12T08:09:17.832Z,64.47
2018-08-12T08:10:17.824Z,65.27
2018-08-12T08:11:17.816Z,64.02
2018-08-12T08:12:17.810Z,60.64
2018-08-12T08:13:17.800Z,59.00
2018-08-12T08:14:17.795Z,59.10
2018-08-12T08:15:17.797Z,59.10
2018-08-12T08:16:17.786Z,60.45
2018-08-12T08:17:17.777Z,59.20
2018-08-12T08:18:17.773Z,58.81
2018-08-12T08:19:17.763Z,60.45
2018-08-12T08:20:17.755Z,61.74
2018-08-12T08:21:17.752Z,61.32
2018-08-12T08:22:17.741Z,60.38
2018-08-12T08:23:17.734Z,60.16
2018-08-12T08:24:17.728Z,61.13
2018-08-12T08:25:17.751Z,60.64
2018-08-12T08:26:17.720Z,60.93
2018-08-12T08:27:17.707Z,59.48
2018-08-12T08:28:17.711Z,59.87
2018-08-12T08:29:17.698Z,59.10
2018-08-12T08:30:17.693Z,58.62
2018-08-12T08:31:17.757Z,58.33
2018-08-12T08:32:17.749Z,57.75
2018-08-12T08:33:17.670Z,57.97
2018-08-12T08:34:17.676Z,58.07
2018-08-12T08:35:17.656Z,60.68
2018-08-12T08:36:17.650Z,61.67
2018-08-12T08:37:17.651Z,59.03
2018-08-12T08:38:17.635Z,59.25
2018-08-12T08:39:17.637Z,58.39
2018-08-12T08:40:17.625Z,58.29
2018-08-12T08:41:17.617Z,58.00
2018-08-12T08:42:17.645Z,57.62
2018-08-12T08:43:17.605Z,58.39
2018-08-12T08:44:17.600Z,58.87
2018-08-12T08:45:17.597Z,57.23
2018-08-12T08:46:17.589Z,56.94
2018-08-12T08:47:17.580Z,57.52
2018-08-12T08:48:17.574Z,57.71
2018-08-12T08:49:17.564Z,58.70
2018-08-12T08:50:17.558Z,57.26
2018-08-12T08:51:17.552Z,58.32
2018-08-12T08:52:17.553Z,58.42
2018-08-12T08:53:17.547Z,57.35
2018-08-12T08:54:17.537Z,57.06
2018-08-12T08:55:17.541Z,56.48
2018-08-12T08:56:17.527Z,56.48
2018-08-12T08:57:17.517Z,56.00
2018-08-12T08:58:17.510Z,56.00
2018-08-12T08:59:17.504Z,56.39
2018-08-12T09:00:17.501Z,55.90
2018-08-12T09:01:17.540Z,56.13
2018-08-12T09:02:17.489Z,58.35
2018-08-12T09:03:17.480Z,57.19
2018-08-12T09:04:17.473Z,56.48
2018-08-12T09:05:17.471Z,57.96
2018-08-12T09:06:17.465Z,58.35
2018-08-12T09:07:17.462Z,57.38
2018-08-12T09:08:17.549Z,56.22
2018-08-12T09:09:17.610Z,57.57
2018-08-12T09:10:17.438Z,58.25
2018-08-12T09:11:17.434Z,60.09
2018-08-12T09:12:17.426Z,59.80
2018-08-12T09:13:17.416Z,57.38
2018-08-12T09:14:17.414Z,56.03
2018-08-12T09:15:17.412Z,56.83
2018-08-12T09:16:17.400Z,56.99
2018-08-12T09:17:17.400Z,56.03
2018-08-12T09:18:17.479Z,56.13
2018-08-12T09:19:17.392Z,55.35
2018-08-12T09:20:17.379Z,55.55
2018-08-12T09:21:17.377Z,54.29
2018-08-12T09:22:17.369Z,54.19
2018-08-12T09:23:17.359Z,54.00
2018-08-12T09:24:17.363Z,55.55
2018-08-12T09:25:17.355Z,55.26
2018-08-12T09:26:17.342Z,54.68
2018-08-12T09:27:17.340Z,54.00
2018-08-12T09:28:17.330Z,54.00
2018-08-12T09:29:17.327Z,53.13
2018-08-12T09:30:17.325Z,53.13
2018-08-12T09:31:17.311Z,54.29
2018-08-12T09:32:17.311Z,54.19
2018-08-12T09:33:17.307Z,54.10
2018-08-12T09:34:17.292Z,54.07
2018-08-12T09:35:17.298Z,54.17
2018-08-12T09:36:17.287Z,55.23
2018-08-12T09:37:17.278Z,54.84
2018-08-12T09:38:17.274Z,54.58
2018-08-12T09:39:17.275Z,55.26
2018-08-12T09:40:17.260Z,55.26
2018-08-12T09:41:17.260Z,55.35
2018-08-12T09:42:17.255Z,55.93
2018-08-12T09:43:17.249Z,56.03
2018-08-12T09:44:17.239Z,55.26
2018-08-12T09:45:17.233Z,55.26
2018-08-12T09:46:17.227Z,54.19
2018-08-12T09:47:17.227Z,54.58
2018-08-12T09:48:17.217Z,54.19
2018-08-12T09:49:17.215Z,54.39
2018-08-12T09:50:17.212Z,54.10
2018-08-12T09:51:17.204Z,54.10
2018-08-12T09:52:17.193Z,54.00
2018-08-12T09:53:17.191Z,53.03
2018-08-12T09:54:17.180Z,53.25
2018-08-12T09:55:17.184Z,52.67
2018-08-12T09:56:17.172Z,52.77
2018-08-12T09:57:17.162Z,52.31
2018-08-12T09:58:17.156Z,50.96
2018-08-12T09:59:17.155Z,51.35
2018-08-12T10:00:17.174Z,51.83
2018-08-12T10:01:17.143Z,51.56
2018-08-12T10:02:17.132Z,52.70
2018-08-12T10:03:17.128Z,51.66
2018-08-12T10:04:17.121Z,51.47
2018-08-12T10:05:17.114Z,51.28
2018-08-12T10:06:17.111Z,51.47
2018-08-12T10:07:17.111Z,51.95
2018-08-12T10:08:17.098Z,52.51
2018-08-12T10:09:17.096Z,52.02
2018-08-12T10:10:17.095Z,52.31
2018-08-12T10:11:17.082Z,51.83
2018-08-12T10:12:17.079Z,51.73
2018-08-12T10:13:17.077Z,51.93
2018-08-12T10:14:17.070Z,52.02
2018-08-12T10:15:17.060Z,51.90
2018-08-12T10:16:17.055Z,52.00
2018-08-12T10:17:17.052Z,52.48
2018-08-12T10:18:17.046Z,52.48
2018-08-12T10:19:17.038Z,53.16
2018-08-12T10:20:17.039Z,54.13
2018-08-12T10:21:17.030Z,53.93
2018-08-12T10:22:17.023Z,53.28
2018-08-12T10:23:17.019Z,53.28
2018-08-12T10:24:17.011Z,53.31
2018-08-12T10:25:17.007Z,52.05
2018-08-12T10:26:17.003Z,52.53
2018-08-12T10:27:17.001Z,52.46
2018-08-12T10:28:16.996Z,51.68
2018-08-12T10:29:17.008Z,51.50
2018-08-12T10:30:16.978Z,52.56
2018-08-12T10:31:16.973Z,53.50
2018-08-12T10:32:16.968Z,50.79
2018-08-12T10:33:16.973Z,50.60
2018-08-12T10:34:16.954Z,51.47
2018-08-12T10:35:16.955Z,51.56
2018-08-12T10:36:16.951Z,51.18
2018-08-12T10:37:16.939Z,51.10
2018-08-12T10:38:16.936Z,51.50
2018-08-12T10:39:16.932Z,51.23
2018-08-12T10:40:16.930Z,52.00
2018-08-12T10:41:16.922Z,50.45
2018-08-12T10:42:16.914Z,50.26
2018-08-12T10:43:16.916Z,50.52
2018-08-12T10:44:16.946Z,51.20
2018-08-12T10:45:16.902Z,50.43
2018-08-12T10:46:16.895Z,50.55
2018-08-12T10:47:16.890Z,51.20
2018-08-12T10:48:16.885Z,51.32
2018-08-12T10:49:16.881Z,51.01
2018-08-12T10:50:16.876Z,50.35
2018-08-12T10:51:16.871Z,50.45
2018-08-12T10:52:16.861Z,49.29
2018-08-12T10:53:16.857Z,49.00
2018-08-12T10:54:16.860Z,49.00
2018-08-12T10:55:16.852Z,49.77
2018-08-12T10:56:16.842Z,49.39
2018-08-12T10:57:16.836Z,50.09
2018-08-12T10:58:16.844Z,51.64
2018-08-12T10:59:16.885Z,53.22
2018-08-12T11:00:16.820Z,52.86
2018-08-12T11:01:16.820Z,52.18
2018-08-12T11:02:16.833Z,51.31
2018-08-12T11:03:16.811Z,50.72
2018-08-12T11:04:16.805Z,48.69
2018-08-12T11:05:16.801Z,48.88
2018-08-12T11:06:16.802Z,48.97
2018-08-12T11:07:16.801Z,48.20
2018-08-12T11:08:16.782Z,49.17
2018-08-12T11:09:16.779Z,48.30
2018-08-12T11:10:16.777Z,48.49
2018-08-12T11:11:16.775Z,47.33
2018-08-12T11:12:16.839Z,47.45
2018-08-12T11:13:16.766Z,48.42
2018-08-12T11:14:16.762Z,47.93
2018-08-12T11:15:16.752Z,45.70
2018-08-12T11:16:16.749Z,45.43
2018-08-12T11:17:16.748Z,46.09
2018-08-12T11:18:16.739Z,45.62
2018-08-12T11:19:16.739Z,46.01
2018-08-12T11:20:16.726Z,44.46
2018-08-12T11:21:16.727Z,42.91
2018-08-12T11:22:16.726Z,44.17
2018-08-12T11:23:16.719Z,45.14
2018-08-12T11:24:16.714Z,44.95
2018-08-12T11:25:16.716Z,44.17
2018-08-12T11:26:16.710Z,43.78
2018-08-12T11:27:16.706Z,43.30
2018-08-12T11:28:16.697Z,44.29
2018-08-12T11:29:16.693Z,43.61
2018-08-12T11:30:16.695Z,42.54
2018-08-12T11:31:16.693Z,42.44
2018-08-12T11:32:16.686Z,43.12
2018-08-12T11:33:16.678Z,43.61
2018-08-12T11:34:16.674Z,42.74
2018-08-12T11:35:16.667Z,42.83
2018-08-12T11:36:16.662Z,42.54
2018-08-12T11:37:16.660Z,43.34
2018-08-12T11:38:16.655Z,42.27
2018-08-12T11:39:16.655Z,43.54
2018-08-12T11:40:16.653Z,43.34
2018-08-12T11:41:16.720Z,42.56
2018-08-12T11:42:16.642Z,42.46
2018-08-12T11:43:16.639Z,42.93
2018-08-12T11:44:16.630Z,43.51
2018-08-12T11:45:16.635Z,44.07
2018-08-12T11:46:16.636Z,43.88
2018-08-12T11:47:16.626Z,44.17
2018-08-12T11:48:16.619Z,44.64
2018-08-12T11:49:16.615Z,45.21
2018-08-12T11:50:16.612Z,45.89
2018-08-12T11:51:16.608Z,45.78
2018-08-12T11:52:16.603Z,45.20
2018-08-12T11:53:16.602Z,45.78
2018-08-12T11:54:16.604Z,45.10
2018-08-12T11:55:16.588Z,45.10
2018-08-12T11:56:16.594Z,44.92
2018-08-12T11:57:16.583Z,45.02
2018-08-12T11:58:16.579Z,45.14
2018-08-12T11:59:16.581Z,43.59
2018-08-12T12:00:16.572Z,43.61
2018-08-12T12:01:16.569Z,45.55
2018-08-12T12:02:16.628Z,43.32
2018-08-12T12:03:16.561Z,42.18
2018-08-12T12:04:16.604Z,41.30
2018-08-12T12:05:16.552Z,42.10
2018-08-12T12:06:16.562Z,42.39
2018-08-12T12:07:16.544Z,40.83
2018-08-12T12:08:16.546Z,40.44
2018-08-12T12:09:16.535Z,41.13
2018-08-12T12:10:16.537Z,40.52
2018-08-12T12:11:16.529Z,40.72
2018-08-12T12:12:16.529Z,41.08
2018-08-12T12:13:16.524Z,42.15
2018-08-12T12:14:16.526Z,42.43
2018-08-12T12:15:16.515Z,42.25
2018-08-12T12:16:16.511Z,42.15
2018-08-12T12:17:16.516Z,42.93
2018-08-12T12:18:16.506Z,43.02
2018-08-12T12:19:16.503Z,43.71
2018-08-12T12:20:16.493Z,43.59
2018-08-12T12:21:16.494Z,44.65
2018-08-12T12:22:16.490Z,44.46
2018-08-12T12:23:16.483Z,44.27
2018-08-12T12:24:16.480Z,44.65
2018-08-12T12:25:16.480Z,45.24
2018-08-12T12:26:16.479Z,44.65
2018-08-12T12:27:16.471Z,44.54
2018-08-12T12:28:16.460Z,45.24
2018-08-12T12:29:16.460Z,46.91
2018-08-12T12:30:16.454Z,44.97
2018-08-12T12:31:16.453Z,45.38
2018-08-12T12:32:16.449Z,42.85
2018-08-12T12:33:16.440Z,42.76
2018-08-12T12:34:16.444Z,41.20
2018-08-12T12:35:16.440Z,41.10
2018-08-12T12:36:16.432Z,40.62
2018-08-12T12:37:16.434Z,41.08
2018-08-12T12:38:16.427Z,42.93
2018-08-12T12:39:16.422Z,42.44
2018-08-12T12:40:16.419Z,41.96
2018-08-12T12:41:16.415Z,42.05
2018-08-12T12:42:16.415Z,42.43
2018-08-12T12:43:16.411Z,43.88
2018-08-12T12:44:16.401Z,43.59
2018-08-12T12:45:16.400Z,43.20
2018-08-12T12:46:16.410Z,44.37
2018-08-12T12:47:16.392Z,43.40
2018-08-12T12:48:16.390Z,43.71
2018-08-12T12:49:16.388Z,43.30
2018-08-12T12:50:16.449Z,43.49
2018-08-12T12:51:16.379Z,43.01
2018-08-12T12:52:16.372Z,42.91